sensor_id;sensor_type;location;lat;lon;timestamp;pressure;altitude;pressure_sealevel;temperature;humidity
75536;BME280;64119;52.070;20.804;2023-06-10T00:01:52;100339.89;;;18.96;71.77
75536;BME280;64119;52.070;20.804;2023-06-10T00:04:22;100335.96;;;18.93;72.86
75536;BME280;64119;52.070;20.804;2023-06-10T00:06:51;100336.93;;;18.90;72.13
75536;BME280;64119;52.070;20.804;2023-06-10T00:09:19;100332.98;;;18.89;72.48
75536;BME280;64119;52.070;20.804;2023-06-10T00:11:48;100335.96;;;18.87;72.51
75536;BME280;64119;52.070;20.804;2023-06-10T00:14:16;100337.95;;;18.86;72.55
75536;BME280;64119;52.070;20.804;2023-06-10T00:16:44;100337.37;;;18.84;72.52
75536;BME280;64119;52.070;20.804;2023-06-10T00:19:13;100342.40;;;18.83;72.38
75536;BME280;64119;52.070;20.804;2023-06-10T00:21:42;100337.36;;;18.81;72.46
75536;BME280;64119;52.070;20.804;2023-06-10T00:24:12;100339.88;;;18.80;72.55
75536;BME280;64119;52.070;20.804;2023-06-10T00:26:40;100341.38;;;18.77;72.92
75536;BME280;64119;52.070;20.804;2023-06-10T00:29:09;100343.01;;;18.75;73.07
75536;BME280;64119;52.070;20.804;2023-06-10T00:31:37;100341.81;;;18.71;73.00
75536;BME280;64119;52.070;20.804;2023-06-10T00:34:07;100340.81;;;18.70;72.78
75536;BME280;64119;52.070;20.804;2023-06-10T00:36:35;100343.36;;;18.68;72.86
75536;BME280;64119;52.070;20.804;2023-06-10T00:39:03;100343.49;;;18.66;73.18
75536;BME280;64119;52.070;20.804;2023-06-10T00:41:32;100340.31;;;18.62;73.15
75536;BME280;64119;52.070;20.804;2023-06-10T00:44:01;100338.11;;;18.60;73.05
75536;BME280;64119;52.070;20.804;2023-06-10T00:46:29;100338.23;;;18.58;73.56
75536;BME280;64119;52.070;20.804;2023-06-10T00:49:00;100338.13;;;18.55;73.34
75536;BME280;64119;52.070;20.804;2023-06-10T00:51:28;100336.06;;;18.50;73.59
75536;BME280;64119;52.070;20.804;2023-06-10T00:53:56;100338.64;;;18.48;73.55
75536;BME280;64119;52.070;20.804;2023-06-10T00:56:24;100347.75;;;18.45;73.37
75536;BME280;64119;52.070;20.804;2023-06-10T00:58:52;100351.93;;;18.42;73.48
75536;BME280;64119;52.070;20.804;2023-06-10T01:01:20;100349.14;;;18.39;73.65
75536;BME280;64119;52.070;20.804;2023-06-10T01:03:48;100351.80;;;18.36;73.87
75536;BME280;64119;52.070;20.804;2023-06-10T01:06:30;100347.70;;;18.32;74.38
75536;BME280;64119;52.070;20.804;2023-06-10T01:09:13;100347.84;;;18.28;74.35
75536;BME280;64119;52.070;20.804;2023-06-10T01:11:54;100349.44;;;18.25;74.76
75536;BME280;64119;52.070;20.804;2023-06-10T01:14:26;100355.43;;;18.21;74.61
75536;BME280;64119;52.070;20.804;2023-06-10T01:16:54;100359.59;;;18.19;74.08
75536;BME280;64119;52.070;20.804;2023-06-10T01:19:22;100356.31;;;18.16;74.07
75536;BME280;64119;52.070;20.804;2023-06-10T01:21:52;100358.45;;;18.15;74.25
75536;BME280;64119;52.070;20.804;2023-06-10T01:24:22;100362.09;;;18.13;74.29
75536;BME280;64119;52.070;20.804;2023-06-10T01:26:51;100362.77;;;18.10;73.98
75536;BME280;64119;52.070;20.804;2023-06-10T01:29:36;100364.11;;;18.07;73.79
75536;BME280;64119;52.070;20.804;2023-06-10T01:32:27;100362.60;;;18.04;73.17
75536;BME280;64119;52.070;20.804;2023-06-10T01:34:57;100367.18;;;18.00;73.08
75536;BME280;64119;52.070;20.804;2023-06-10T01:37:26;100368.15;;;17.97;72.77
75536;BME280;64119;52.070;20.804;2023-06-10T01:39:57;100366.59;;;17.92;72.63
75536;BME280;64119;52.070;20.804;2023-06-10T01:42:26;100370.91;;;17.91;72.05
75536;BME280;64119;52.070;20.804;2023-06-10T01:44:57;100368.02;;;17.88;71.40
75536;BME280;64119;52.070;20.804;2023-06-10T01:47:25;100373.41;;;17.87;71.14
75536;BME280;64119;52.070;20.804;2023-06-10T01:49:53;100372.20;;;17.86;70.38
75536;BME280;64119;52.070;20.804;2023-06-10T01:52:21;100373.33;;;17.83;69.77
75536;BME280;64119;52.070;20.804;2023-06-10T01:54:49;100372.32;;;17.81;69.35
75536;BME280;64119;52.070;20.804;2023-06-10T01:57:18;100374.55;;;17.80;68.44
75536;BME280;64119;52.070;20.804;2023-06-10T01:59:46;100377.45;;;17.78;68.45
75536;BME280;64119;52.070;20.804;2023-06-10T02:02:14;100375.73;;;17.78;68.23
75536;BME280;64119;52.070;20.804;2023-06-10T02:04:42;100379.71;;;17.77;67.97
75536;BME280;64119;52.070;20.804;2023-06-10T02:07:10;100379.30;;;17.75;68.17
75536;BME280;64119;52.070;20.804;2023-06-10T02:09:39;100379.33;;;17.73;67.50
75536;BME280;64119;52.070;20.804;2023-06-10T02:12:08;100379.54;;;17.68;66.58
75536;BME280;64119;52.070;20.804;2023-06-10T02:14:36;100379.22;;;17.66;66.42
75536;BME280;64119;52.070;20.804;2023-06-10T02:17:04;100384.69;;;17.64;65.38
75536;BME280;64119;52.070;20.804;2023-06-10T02:19:32;100386.15;;;17.62;64.67
75536;BME280;64119;52.070;20.804;2023-06-10T02:22:00;100387.24;;;17.60;64.49
75536;BME280;64119;52.070;20.804;2023-06-10T02:24:28;100384.79;;;17.59;64.17
75536;BME280;64119;52.070;20.804;2023-06-10T02:26:56;100389.08;;;17.56;64.15
75536;BME280;64119;52.070;20.804;2023-06-10T02:29:24;100390.84;;;17.56;63.83
75536;BME280;64119;52.070;20.804;2023-06-10T02:31:52;100394.16;;;17.54;63.18
75536;BME280;64119;52.070;20.804;2023-06-10T02:34:20;100393.84;;;17.52;63.11
75536;BME280;64119;52.070;20.804;2023-06-10T02:36:49;100396.01;;;17.51;62.91
75536;BME280;64119;52.070;20.804;2023-06-10T02:39:21;100395.87;;;17.50;61.67
75536;BME280;64119;52.070;20.804;2023-06-10T02:41:49;100396.09;;;17.48;61.27
75536;BME280;64119;52.070;20.804;2023-06-10T02:44:20;100400.06;;;17.48;61.43
75536;BME280;64119;52.070;20.804;2023-06-10T02:46:48;100403.80;;;17.47;60.86
75536;BME280;64119;52.070;20.804;2023-06-10T02:49:16;100403.83;;;17.47;61.28
75536;BME280;64119;52.070;20.804;2023-06-10T02:51:45;100403.23;;;17.46;60.37
75536;BME280;64119;52.070;20.804;2023-06-10T02:54:13;100403.89;;;17.46;59.90
75536;BME280;64119;52.070;20.804;2023-06-10T02:56:41;100406.79;;;17.47;60.53
75536;BME280;64119;52.070;20.804;2023-06-10T02:59:14;100407.98;;;17.48;60.73
75536;BME280;64119;52.070;20.804;2023-06-10T03:01:42;100410.88;;;17.49;60.29
75536;BME280;64119;52.070;20.804;2023-06-10T03:04:10;100418.66;;;17.52;60.95
75536;BME280;64119;52.070;20.804;2023-06-10T03:06:42;100417.46;;;17.52;60.35
75536;BME280;64119;52.070;20.804;2023-06-10T03:09:16;100421.91;;;17.52;60.26
75536;BME280;64119;52.070;20.804;2023-06-10T03:11:45;100419.73;;;17.53;60.47
75536;BME280;64119;52.070;20.804;2023-06-10T03:14:13;100418.54;;;17.52;59.74
75536;BME280;64119;52.070;20.804;2023-06-10T03:16:41;100417.66;;;17.52;59.55
75536;BME280;64119;52.070;20.804;2023-06-10T03:19:10;100419.67;;;17.53;59.95
75536;BME280;64119;52.070;20.804;2023-06-10T03:21:43;100420.49;;;17.53;59.15
75536;BME280;64119;52.070;20.804;2023-06-10T03:24:13;100421.43;;;17.55;60.08
75536;BME280;64119;52.070;20.804;2023-06-10T03:26:41;100428.88;;;17.56;59.72
75536;BME280;64119;52.070;20.804;2023-06-10T03:29:10;100433.80;;;17.55;59.54
75536;BME280;64119;52.070;20.804;2023-06-10T03:31:38;100435.35;;;17.53;59.21
75536;BME280;64119;52.070;20.804;2023-06-10T03:34:06;100444.26;;;17.54;58.98
75536;BME280;64119;52.070;20.804;2023-06-10T03:36:35;100443.73;;;17.50;59.28
75536;BME280;64119;52.070;20.804;2023-06-10T03:39:05;100445.45;;;17.48;59.50
75536;BME280;64119;52.070;20.804;2023-06-10T03:41:34;100446.11;;;17.49;59.63
75536;BME280;64119;52.070;20.804;2023-06-10T03:44:02;100444.15;;;17.50;59.58
75536;BME280;64119;52.070;20.804;2023-06-10T03:46:31;100442.70;;;17.50;59.19
75536;BME280;64119;52.070;20.804;2023-06-10T03:48:59;100441.83;;;17.47;59.62
75536;BME280;64119;52.070;20.804;2023-06-10T03:51:29;100449.32;;;17.49;59.74
75536;BME280;64119;52.070;20.804;2023-06-10T03:53:57;100445.83;;;17.50;59.49
75536;BME280;64119;52.070;20.804;2023-06-10T03:56:25;100452.91;;;17.52;59.58
75536;BME280;64119;52.070;20.804;2023-06-10T03:58:54;100454.14;;;17.53;59.83
75536;BME280;64119;52.070;20.804;2023-06-10T04:01:22;100454.07;;;17.57;59.63
75536;BME280;64119;52.070;20.804;2023-06-10T04:03:51;100456.52;;;17.61;59.72
75536;BME280;64119;52.070;20.804;2023-06-10T04:06:21;100455.25;;;17.66;59.57
75536;BME280;64119;52.070;20.804;2023-06-10T04:08:50;100455.77;;;17.74;59.86
75536;BME280;64119;52.070;20.804;2023-06-10T04:11:18;100453.11;;;17.82;59.67
75536;BME280;64119;52.070;20.804;2023-06-10T04:13:45;100457.25;;;17.89;59.97
75536;BME280;64119;52.070;20.804;2023-06-10T04:16:13;100454.80;;;17.97;59.66
75536;BME280;64119;52.070;20.804;2023-06-10T04:18:41;100457.61;;;18.05;59.26
75536;BME280;64119;52.070;20.804;2023-06-10T04:21:10;100455.76;;;18.14;58.94
75536;BME280;64119;52.070;20.804;2023-06-10T04:23:38;100453.80;;;18.20;59.22
75536;BME280;64119;52.070;20.804;2023-06-10T04:26:07;100459.17;;;18.27;58.83
75536;BME280;64119;52.070;20.804;2023-06-10T04:28:35;100458.13;;;18.31;58.95
75536;BME280;64119;52.070;20.804;2023-06-10T04:31:03;100458.34;;;18.36;58.98
75536;BME280;64119;52.070;20.804;2023-06-10T04:33:32;100459.03;;;18.40;58.70
75536;BME280;64119;52.070;20.804;2023-06-10T04:36:01;100460.67;;;18.42;58.95
75536;BME280;64119;52.070;20.804;2023-06-10T04:38:29;100462.35;;;18.49;58.76
75536;BME280;64119;52.070;20.804;2023-06-10T04:40:58;100462.77;;;18.53;58.80
75536;BME280;64119;52.070;20.804;2023-06-10T04:43:27;100466.90;;;18.56;58.36
75536;BME280;64119;52.070;20.804;2023-06-10T04:45:59;100468.66;;;18.58;58.73
75536;BME280;64119;52.070;20.804;2023-06-10T04:48:27;100467.27;;;18.64;58.85
75536;BME280;64119;52.070;20.804;2023-06-10T04:50:55;100469.02;;;18.68;58.39
75536;BME280;64119;52.070;20.804;2023-06-10T04:53:24;100465.11;;;18.71;58.98
75536;BME280;64119;52.070;20.804;2023-06-10T04:55:52;100468.45;;;18.77;58.52
75536;BME280;64119;52.070;20.804;2023-06-10T04:58:20;100470.23;;;18.83;58.35
75536;BME280;64119;52.070;20.804;2023-06-10T05:00:47;100472.61;;;18.86;58.33
75536;BME280;64119;52.070;20.804;2023-06-10T05:03:15;100476.80;;;18.92;58.39
75536;BME280;64119;52.070;20.804;2023-06-10T05:05:43;100471.08;;;18.98;58.37
75536;BME280;64119;52.070;20.804;2023-06-10T05:08:11;100476.34;;;19.04;58.06
75536;BME280;64119;52.070;20.804;2023-06-10T05:10:39;100475.56;;;19.05;57.92
75536;BME280;64119;52.070;20.804;2023-06-10T05:13:07;100480.95;;;19.09;58.39
75536;BME280;64119;52.070;20.804;2023-06-10T05:15:35;100486.73;;;19.16;58.28
75536;BME280;64119;52.070;20.804;2023-06-10T05:18:02;100487.76;;;19.22;58.44
75536;BME280;64119;52.070;20.804;2023-06-10T05:20:31;100486.02;;;19.30;57.84
75536;BME280;64119;52.070;20.804;2023-06-10T05:22:58;100482.41;;;19.33;57.98
75536;BME280;64119;52.070;20.804;2023-06-10T05:25:30;100484.61;;;19.41;58.18
75536;BME280;64119;52.070;20.804;2023-06-10T05:27:58;100486.66;;;19.46;57.67
75536;BME280;64119;52.070;20.804;2023-06-10T05:30:26;100491.27;;;19.55;58.05
75536;BME280;64119;52.070;20.804;2023-06-10T05:32:54;100495.13;;;19.60;57.65
75536;BME280;64119;52.070;20.804;2023-06-10T05:35:23;100494.16;;;19.64;57.79
75536;BME280;64119;52.070;20.804;2023-06-10T05:37:52;100490.63;;;19.68;57.62
75536;BME280;64119;52.070;20.804;2023-06-10T05:40:20;100489.80;;;19.73;57.47
75536;BME280;64119;52.070;20.804;2023-06-10T05:42:48;100490.16;;;19.80;57.84
75536;BME280;64119;52.070;20.804;2023-06-10T05:45:15;100490.65;;;19.90;58.53
75536;BME280;64119;52.070;20.804;2023-06-10T05:47:43;100496.85;;;20.01;58.19
75536;BME280;64119;52.070;20.804;2023-06-10T05:50:11;100495.15;;;20.09;58.30
75536;BME280;64119;52.070;20.804;2023-06-10T05:52:39;100494.21;;;20.16;57.74
75536;BME280;64119;52.070;20.804;2023-06-10T05:55:10;100496.12;;;20.23;57.00
75536;BME280;64119;52.070;20.804;2023-06-10T05:57:41;100493.84;;;20.28;57.33
75536;BME280;64119;52.070;20.804;2023-06-10T06:00:10;100493.23;;;20.35;56.69
75536;BME280;64119;52.070;20.804;2023-06-10T06:02:42;100489.20;;;20.45;56.99
75536;BME280;64119;52.070;20.804;2023-06-10T06:05:10;100491.05;;;20.55;57.03
75536;BME280;64119;52.070;20.804;2023-06-10T06:07:38;100490.58;;;20.63;57.01
75536;BME280;64119;52.070;20.804;2023-06-10T06:10:06;100494.12;;;20.71;55.93
75536;BME280;64119;52.070;20.804;2023-06-10T06:12:34;100493.07;;;20.73;55.79
75536;BME280;64119;52.070;20.804;2023-06-10T06:15:03;100488.48;;;20.77;55.63
75536;BME280;64119;52.070;20.804;2023-06-10T06:17:31;100490.41;;;20.85;56.41
75536;BME280;64119;52.070;20.804;2023-06-10T06:19:59;100490.60;;;20.93;55.84
75536;BME280;64119;52.070;20.804;2023-06-10T06:22:26;100486.90;;;21.00;56.22
75536;BME280;64119;52.070;20.804;2023-06-10T06:24:54;100491.87;;;21.07;56.60
75536;BME280;64119;52.070;20.804;2023-06-10T06:27:22;100492.98;;;21.06;56.01
75536;BME280;64119;52.070;20.804;2023-06-10T06:29:50;100496.06;;;21.14;56.28
75536;BME280;64119;52.070;20.804;2023-06-10T06:32:19;100497.59;;;21.22;56.14
75536;BME280;64119;52.070;20.804;2023-06-10T06:34:47;100494.56;;;21.32;56.18
75536;BME280;64119;52.070;20.804;2023-06-10T06:37:17;100494.60;;;21.44;55.98
75536;BME280;64119;52.070;20.804;2023-06-10T06:39:45;100489.95;;;21.56;55.59
75536;BME280;64119;52.070;20.804;2023-06-10T06:42:13;100490.65;;;21.66;55.57
75536;BME280;64119;52.070;20.804;2023-06-10T06:44:50;100488.08;;;21.74;54.96
75536;BME280;64119;52.070;20.804;2023-06-10T06:47:18;100494.80;;;21.83;54.97
75536;BME280;64119;52.070;20.804;2023-06-10T06:49:47;100494.71;;;21.93;54.61
75536;BME280;64119;52.070;20.804;2023-06-10T06:52:15;100497.04;;;22.01;55.32
75536;BME280;64119;52.070;20.804;2023-06-10T06:54:43;100499.17;;;22.12;54.85
75536;BME280;64119;52.070;20.804;2023-06-10T06:57:11;100501.93;;;22.20;55.07
75536;BME280;64119;52.070;20.804;2023-06-10T06:59:39;100502.13;;;22.26;54.53
75536;BME280;64119;52.070;20.804;2023-06-10T07:02:07;100499.77;;;22.30;53.86
75536;BME280;64119;52.070;20.804;2023-06-10T07:04:35;100501.23;;;22.32;53.85
75536;BME280;64119;52.070;20.804;2023-06-10T07:07:07;100503.33;;;22.37;54.09
75536;BME280;64119;52.070;20.804;2023-06-10T07:09:34;100500.44;;;22.43;53.93
75536;BME280;64119;52.070;20.804;2023-06-10T07:12:03;100506.48;;;22.50;54.06
75536;BME280;64119;52.070;20.804;2023-06-10T07:14:31;100505.15;;;22.57;53.35
75536;BME280;64119;52.070;20.804;2023-06-10T07:16:58;100507.51;;;22.66;53.79
75536;BME280;64119;52.070;20.804;2023-06-10T07:19:26;100510.14;;;22.75;53.18
75536;BME280;64119;52.070;20.804;2023-06-10T07:21:54;100513.27;;;22.88;53.24
75536;BME280;64119;52.070;20.804;2023-06-10T07:24:22;100512.76;;;22.98;52.42
75536;BME280;64119;52.070;20.804;2023-06-10T07:26:50;100508.95;;;23.07;51.27
75536;BME280;64119;52.070;20.804;2023-06-10T07:29:18;100515.67;;;23.14;52.19
75536;BME280;64119;52.070;20.804;2023-06-10T07:31:46;100515.91;;;23.22;51.14
75536;BME280;64119;52.070;20.804;2023-06-10T07:34:14;100512.34;;;23.26;51.34
75536;BME280;64119;52.070;20.804;2023-06-10T07:36:42;100517.86;;;23.38;52.23
75536;BME280;64119;52.070;20.804;2023-06-10T07:39:09;100518.80;;;23.48;50.66
75536;BME280;64119;52.070;20.804;2023-06-10T07:41:37;100515.77;;;23.54;50.68
75536;BME280;64119;52.070;20.804;2023-06-10T07:44:05;100516.48;;;23.63;51.32
75536;BME280;64119;52.070;20.804;2023-06-10T07:46:33;100518.60;;;23.73;50.78
75536;BME280;64119;52.070;20.804;2023-06-10T07:49:01;100521.52;;;23.78;50.37
75536;BME280;64119;52.070;20.804;2023-06-10T07:51:29;100520.92;;;23.84;51.41
75536;BME280;64119;52.070;20.804;2023-06-10T07:53:57;100524.35;;;23.90;49.92
75536;BME280;64119;52.070;20.804;2023-06-10T07:56:25;100527.70;;;23.94;48.95
75536;BME280;64119;52.070;20.804;2023-06-10T07:58:54;100525.96;;;24.00;48.62
75536;BME280;64119;52.070;20.804;2023-06-10T08:01:22;100520.88;;;24.08;48.55
75536;BME280;64119;52.070;20.804;2023-06-10T08:03:50;100523.63;;;24.20;49.57
75536;BME280;64119;52.070;20.804;2023-06-10T08:06:18;100526.91;;;24.38;48.96
75536;BME280;64119;52.070;20.804;2023-06-10T08:08:46;100526.91;;;24.54;47.11
75536;BME280;64119;52.070;20.804;2023-06-10T08:11:14;100523.70;;;24.60;44.46
75536;BME280;64119;52.070;20.804;2023-06-10T08:13:42;100524.22;;;24.63;45.75
75536;BME280;64119;52.070;20.804;2023-06-10T08:16:10;100522.68;;;24.69;45.03
75536;BME280;64119;52.070;20.804;2023-06-10T08:18:38;100522.57;;;24.69;45.07
75536;BME280;64119;52.070;20.804;2023-06-10T08:21:05;100522.10;;;24.66;44.50
75536;BME280;64119;52.070;20.804;2023-06-10T08:23:33;100522.85;;;24.68;45.57
75536;BME280;64119;52.070;20.804;2023-06-10T08:26:01;100525.97;;;24.79;44.64
75536;BME280;64119;52.070;20.804;2023-06-10T08:28:29;100522.64;;;24.99;45.38
75536;BME280;64119;52.070;20.804;2023-06-10T08:30:57;100520.44;;;25.22;44.96
75536;BME280;64119;52.070;20.804;2023-06-10T08:33:25;100521.63;;;25.41;42.40
75536;BME280;64119;52.070;20.804;2023-06-10T08:35:53;100525.21;;;25.61;43.18
75536;BME280;64119;52.070;20.804;2023-06-10T08:38:21;100517.23;;;25.85;44.50
75536;BME280;64119;52.070;20.804;2023-06-10T08:40:50;100517.86;;;26.08;41.89
75536;BME280;64119;52.070;20.804;2023-06-10T08:46:00;100513.32;;;26.48;41.07
75536;BME280;64119;52.070;20.804;2023-06-10T08:48:34;100513.03;;;26.54;40.16
75536;BME280;64119;52.070;20.804;2023-06-10T08:51:04;100515.73;;;26.61;41.42
75536;BME280;64119;52.070;20.804;2023-06-10T08:53:36;100514.58;;;26.76;40.92
75536;BME280;64119;52.070;20.804;2023-06-10T08:56:05;100519.67;;;26.91;40.39
75536;BME280;64119;52.070;20.804;2023-06-10T08:58:34;100520.95;;;27.06;39.57
75536;BME280;64119;52.070;20.804;2023-06-10T09:01:08;100524.91;;;27.08;38.83
75536;BME280;64119;52.070;20.804;2023-06-10T09:03:37;100525.31;;;27.14;39.34
75536;BME280;64119;52.070;20.804;2023-06-10T09:06:05;100527.05;;;27.22;38.32
75536;BME280;64119;52.070;20.804;2023-06-10T09:08:34;100520.66;;;27.30;38.70
75536;BME280;64119;52.070;20.804;2023-06-10T09:11:02;100525.41;;;27.41;38.73
75536;BME280;64119;52.070;20.804;2023-06-10T09:13:30;100524.30;;;27.47;38.04
75536;BME280;64119;52.070;20.804;2023-06-10T09:15:58;100525.79;;;27.52;37.54
75536;BME280;64119;52.070;20.804;2023-06-10T09:18:29;100528.53;;;27.55;37.12
75536;BME280;64119;52.070;20.804;2023-06-10T09:20:57;100526.38;;;27.78;37.92
75536;BME280;64119;52.070;20.804;2023-06-10T09:23:27;100524.61;;;28.06;37.64
75536;BME280;64119;52.070;20.804;2023-06-10T09:25:56;100524.66;;;28.35;36.81
75536;BME280;64119;52.070;20.804;2023-06-10T09:28:25;100526.39;;;28.81;37.59
75536;BME280;64119;52.070;20.804;2023-06-10T09:31:06;100534.88;;;29.19;34.00
75536;BME280;64119;52.070;20.804;2023-06-10T09:33:39;100523.32;;;29.52;33.45
75536;BME280;64119;52.070;20.804;2023-06-10T09:36:07;100532.59;;;29.59;31.01
75536;BME280;64119;52.070;20.804;2023-06-10T09:38:35;100535.95;;;29.63;32.12
75536;BME280;64119;52.070;20.804;2023-06-10T09:41:03;100533.02;;;29.62;32.19
75536;BME280;64119;52.070;20.804;2023-06-10T09:43:45;100531.56;;;29.90;33.11
75536;BME280;64119;52.070;20.804;2023-06-10T09:46:18;100533.74;;;30.16;33.10
75536;BME280;64119;52.070;20.804;2023-06-10T09:48:47;100528.52;;;30.38;32.29
75536;BME280;64119;52.070;20.804;2023-06-10T09:51:15;100528.98;;;30.47;31.94
75536;BME280;64119;52.070;20.804;2023-06-10T09:53:53;100527.01;;;30.48;31.29
75536;BME280;64119;52.070;20.804;2023-06-10T09:56:21;100529.81;;;30.40;28.78
75536;BME280;64119;52.070;20.804;2023-06-10T09:58:53;100535.44;;;30.12;29.53
75536;BME280;64119;52.070;20.804;2023-06-10T10:01:21;100535.34;;;30.03;29.93
75536;BME280;64119;52.070;20.804;2023-06-10T10:03:50;100535.52;;;30.00;30.38
75536;BME280;64119;52.070;20.804;2023-06-10T10:06:20;100539.48;;;30.06;29.72
75536;BME280;64119;52.070;20.804;2023-06-10T10:08:50;100533.80;;;30.15;29.74
75536;BME280;64119;52.070;20.804;2023-06-10T10:11:20;100528.51;;;30.19;30.56
75536;BME280;64119;52.070;20.804;2023-06-10T10:13:50;100522.17;;;30.19;31.28
75536;BME280;64119;52.070;20.804;2023-06-10T10:16:45;100519.80;;;30.52;31.41
75536;BME280;64119;52.070;20.804;2023-06-10T10:19:20;100520.34;;;30.81;32.44
75536;BME280;64119;52.070;20.804;2023-06-10T10:21:53;100518.14;;;30.99;31.74
75536;BME280;64119;52.070;20.804;2023-06-10T10:24:24;100517.02;;;31.16;31.88
75536;BME280;64119;52.070;20.804;2023-06-10T10:26:58;100515.38;;;31.36;30.61
75536;BME280;64119;52.070;20.804;2023-06-10T10:29:31;100525.04;;;31.61;29.70
75536;BME280;64119;52.070;20.804;2023-06-10T10:32:01;100522.38;;;31.78;29.51
75536;BME280;64119;52.070;20.804;2023-06-10T10:34:37;100522.45;;;31.94;27.58
75536;BME280;64119;52.070;20.804;2023-06-10T10:37:09;100524.36;;;32.11;25.00
75536;BME280;64119;52.070;20.804;2023-06-10T10:39:37;100524.31;;;32.19;25.33
75536;BME280;64119;52.070;20.804;2023-06-10T10:42:06;100518.27;;;32.34;26.59
75536;BME280;64119;52.070;20.804;2023-06-10T10:44:38;100522.61;;;32.58;26.82
75536;BME280;64119;52.070;20.804;2023-06-10T10:47:09;100521.10;;;32.77;26.67
75536;BME280;64119;52.070;20.804;2023-06-10T10:49:38;100517.36;;;32.96;26.21
75536;BME280;64119;52.070;20.804;2023-06-10T10:52:11;100518.57;;;33.02;26.72
75536;BME280;64119;52.070;20.804;2023-06-10T10:54:44;100515.87;;;32.68;26.17
75536;BME280;64119;52.070;20.804;2023-06-10T10:59:54;100517.02;;;32.41;27.58
75536;BME280;64119;52.070;20.804;2023-06-10T11:02:44;100509.51;;;32.10;26.33
75536;BME280;64119;52.070;20.804;2023-06-10T11:05:15;100508.11;;;31.94;24.99
75536;BME280;64119;52.070;20.804;2023-06-10T11:07:54;100512.34;;;31.89;25.92
75536;BME280;64119;52.070;20.804;2023-06-10T11:10:34;100505.86;;;31.67;25.39
75536;BME280;64119;52.070;20.804;2023-06-10T11:13:15;100505.36;;;31.55;26.08
75536;BME280;64119;52.070;20.804;2023-06-10T11:15:45;100507.04;;;31.65;25.91
75536;BME280;64119;52.070;20.804;2023-06-10T11:18:27;100506.34;;;31.72;25.30
75536;BME280;64119;52.070;20.804;2023-06-10T11:20:57;100504.36;;;31.81;26.90
75536;BME280;64119;52.070;20.804;2023-06-10T11:31:24;100499.31;;;32.06;26.46
75536;BME280;64119;52.070;20.804;2023-06-10T11:33:56;100503.83;;;32.07;25.59
75536;BME280;64119;52.070;20.804;2023-06-10T11:36:25;100498.98;;;31.90;26.50
75536;BME280;64119;52.070;20.804;2023-06-10T11:38:58;100497.36;;;31.73;25.55
75536;BME280;64119;52.070;20.804;2023-06-10T11:41:27;100498.95;;;31.57;24.87
75536;BME280;64119;52.070;20.804;2023-06-10T11:44:03;100499.39;;;31.62;25.66
75536;BME280;64119;52.070;20.804;2023-06-10T11:46:32;100495.23;;;31.62;25.88
75536;BME280;64119;52.070;20.804;2023-06-10T11:49:00;100485.97;;;31.88;25.12
75536;BME280;64119;52.070;20.804;2023-06-10T11:51:33;100488.70;;;32.05;25.15
75536;BME280;64119;52.070;20.804;2023-06-10T11:54:02;100486.02;;;32.22;25.93
75536;BME280;64119;52.070;20.804;2023-06-10T11:56:31;100487.77;;;32.17;25.92
75536;BME280;64119;52.070;20.804;2023-06-10T11:59:01;100485.30;;;31.98;25.68
75536;BME280;64119;52.070;20.804;2023-06-10T12:01:35;100483.45;;;32.08;25.72
75536;BME280;64119;52.070;20.804;2023-06-10T12:04:10;100480.13;;;31.86;25.04
75536;BME280;64119;52.070;20.804;2023-06-10T12:09:27;100480.47;;;31.20;25.33
75536;BME280;64119;52.070;20.804;2023-06-10T12:11:59;100481.17;;;30.98;26.41
75536;BME280;64119;52.070;20.804;2023-06-10T12:14:57;100478.98;;;30.93;26.68
75536;BME280;64119;52.070;20.804;2023-06-10T12:20:01;100470.54;;;30.77;26.13
75536;BME280;64119;52.070;20.804;2023-06-10T12:22:42;100473.33;;;30.65;26.59
75536;BME280;64119;52.070;20.804;2023-06-10T12:25:11;100470.75;;;30.44;26.49
75536;BME280;64119;52.070;20.804;2023-06-10T12:27:41;100467.73;;;30.33;27.13
75536;BME280;64119;52.070;20.804;2023-06-10T12:30:22;100462.46;;;30.25;27.31
75536;BME280;64119;52.070;20.804;2023-06-10T12:32:51;100461.31;;;30.05;27.09
75536;BME280;64119;52.070;20.804;2023-06-10T12:35:22;100461.04;;;29.94;27.36
75536;BME280;64119;52.070;20.804;2023-06-10T12:38:02;100458.30;;;29.78;27.61
75536;BME280;64119;52.070;20.804;2023-06-10T12:43:00;100458.40;;;29.56;28.26
75536;BME280;64119;52.070;20.804;2023-06-10T12:45:35;100458.96;;;29.49;29.21
75536;BME280;64119;52.070;20.804;2023-06-10T12:48:08;100457.19;;;29.36;29.49
75536;BME280;64119;52.070;20.804;2023-06-10T12:50:39;100454.02;;;29.32;29.99
75536;BME280;64119;52.070;20.804;2023-06-10T12:53:08;100451.29;;;29.25;29.83
75536;BME280;64119;52.070;20.804;2023-06-10T12:55:37;100450.58;;;29.15;30.83
75536;BME280;64119;52.070;20.804;2023-06-10T12:58:06;100443.92;;;29.15;29.75
75536;BME280;64119;52.070;20.804;2023-06-10T13:00:33;100444.08;;;29.15;30.57
75536;BME280;64119;52.070;20.804;2023-06-10T13:03:03;100441.73;;;29.06;29.74
75536;BME280;64119;52.070;20.804;2023-06-10T13:05:35;100436.55;;;28.98;29.81
75536;BME280;64119;52.070;20.804;2023-06-10T13:08:07;100438.56;;;28.94;31.08
75536;BME280;64119;52.070;20.804;2023-06-10T13:10:35;100435.77;;;28.99;30.79
75536;BME280;64119;52.070;20.804;2023-06-10T13:13:03;100434.05;;;29.00;31.38
75536;BME280;64119;52.070;20.804;2023-06-10T13:15:37;100435.86;;;28.87;31.45